Time;durP1;ratioP1;P1;durP2;ratioP2;P2;SDS_P1;SDS_P2;PMS_P1;PMS_P2;Temp;Humidity;BMP_temperature;BMP_pressure;BME280_temperature;BME280_humidity;BME280_pressure;Samples;Min_cycle;Max_cycle;Signal;HPM_P1;HPM_P2
2022/12/25 00:01:21;;;;;;;15.20;3.75;;;8.70;99.90;;;7.84;100.00;97758.94;4996449;28;20492;-70
2022/12/25 00:03:49;;;;;;;14.27;2.85;;;8.70;99.90;;;7.80;100.00;97762.50;5003356;28;20061;-70
2022/12/25 00:06:17;;;;;;;18.88;3.20;;;8.70;99.90;;;7.77;100.00;97762.59;4996727;28;20045;-70
2022/12/25 00:08:44;;;;;;;17.70;3.92;;;8.80;99.90;;;7.88;100.00;97756.22;4996005;28;20058;-70
2022/12/25 00:11:14;;;;;;;14.80;3.20;;;8.70;99.90;;;7.83;100.00;97759.84;4997037;28;20052;-70
2022/12/25 00:13:42;;;;;;;18.27;4.10;;;8.70;99.90;;;7.85;100.00;97751.16;4994120;28;20132;-71
2022/12/25 00:16:18;;;;;;;11.60;3.38;;;8.70;99.90;;;7.84;100.00;97757.19;4997547;28;20118;-70
2022/12/25 00:18:46;;;;;;;22.05;4.10;;;8.70;99.90;;;7.77;100.00;97752.25;4994729;28;20494;-70
2022/12/25 00:21:14;;;;;;;22.15;3.63;;;8.70;99.90;;;7.84;100.00;97746.03;4998663;28;20173;-71
2022/12/25 00:23:41;;;;;;;18.02;4.32;;;8.70;99.90;;;7.82;100.00;97743.47;4997607;28;20050;-71
2022/12/25 00:26:13;;;;;;;14.73;3.30;;;8.60;99.90;;;7.85;100.00;97732.22;4996539;28;20128;-71
2022/12/25 00:28:40;;;;;;;15.10;3.40;;;8.60;99.90;;;7.86;100.00;97733.91;4998388;28;20046;-70
2022/12/25 00:31:13;;;;;;;14.05;3.08;;;8.60;99.90;;;7.86;100.00;97731.31;4999954;28;20050;-71
2022/12/25 00:33:42;;;;;;;12.88;2.92;;;8.50;99.90;;;7.82;100.00;97730.56;5001526;28;20042;-71
2022/12/25 00:36:12;;;;;;;18.10;3.45;;;8.50;99.90;;;7.82;100.00;97732.28;4994895;28;20050;-70
2022/12/25 00:38:40;;;;;;;17.42;3.53;;;8.50;99.90;;;7.89;100.00;97739.84;4996293;28;20412;-71
2022/12/25 00:41:11;;;;;;;16.35;2.92;;;8.50;99.90;;;7.93;100.00;97730.25;5004040;28;20504;-70
2022/12/25 00:43:40;;;;;;;11.30;2.03;;;8.60;99.90;;;7.98;100.00;97730.94;5015442;28;20045;-70
2022/12/25 00:46:09;;;;;;;16.42;2.67;;;8.60;99.90;;;7.96;100.00;97725.84;4998239;28;20427;-70
2022/12/25 00:48:37;;;;;;;16.92;2.50;;;8.60;99.90;;;7.99;100.00;97729.22;5002483;28;20048;-71
2022/12/25 00:51:09;;;;;;;17.15;2.90;;;8.70;99.90;;;7.99;100.00;97739.56;5000441;28;20072;-70
2022/12/25 00:53:36;;;;;;;16.83;2.13;;;8.70;99.90;;;7.99;100.00;97742.16;5002710;28;20725;-70
2022/12/25 00:56:06;;;;;;;16.80;2.63;;;8.70;99.90;;;7.96;100.00;97740.50;4999953;28;20046;-70
2022/12/25 00:58:34;;;;;;;15.20;2.95;;;8.70;99.90;;;7.90;100.00;97743.28;5001100;28;20050;-71
2022/12/25 01:01:02;;;;;;;11.77;2.95;;;8.70;99.90;;;7.94;100.00;97742.28;5002559;28;20096;-70
2022/12/25 01:03:29;;;;;;;13.93;3.17;;;8.70;99.90;;;7.92;100.00;97741.50;5001043;28;20157;-70
2022/12/25 01:06:03;;;;;;;16.05;3.33;;;8.70;99.90;;;7.94;100.00;97742.28;4985249;28;20842;-70
2022/12/25 01:08:34;;;;;;;15.57;4.53;;;8.70;99.90;;;7.85;100.00;97743.41;4999508;28;20053;-70
2022/12/25 01:11:07;;;;;;;16.48;3.20;;;8.80;99.90;;;7.97;100.00;97744.78;5002530;28;20046;-69
2022/12/25 01:13:36;;;;;;;14.25;3.47;;;8.70;99.90;;;8.00;100.00;97755.00;5003604;28;20117;-70
2022/12/25 01:16:09;;;;;;;15.75;3.40;;;8.80;99.90;;;7.95;100.00;97752.56;4996806;28;20112;-70
2022/12/25 01:18:36;;;;;;;;;;;8.80;99.90;;;7.91;100.00;97748.41;4996913;28;20095;-70
2022/12/25 01:21:08;;;;;;;16.48;3.50;;;8.80;99.90;;;7.99;100.00;97743.00;4999886;28;20015;-70
2022/12/25 01:23:35;;;;;;;25.70;4.05;;;8.80;99.90;;;7.91;100.00;97753.56;4996840;28;20066;-70
2022/12/25 01:26:04;;;;;;;21.02;3.85;;;8.80;99.90;;;7.96;100.00;97761.19;5000675;28;20145;-71
2022/12/25 01:28:31;;;;;;;19.95;3.60;;;8.80;99.90;;;7.94;100.00;97761.22;4997341;28;20659;-70
2022/12/25 01:30:58;;;;;;;19.08;4.22;;;8.80;99.90;;;7.91;100.00;97751.00;4994361;28;20050;-70
2022/12/25 01:33:26;;;;;;;15.20;3.53;;;8.80;99.90;;;7.92;100.00;97759.59;4997063;28;20038;-70
2022/12/25 01:35:53;;;;;;;14.32;3.85;;;8.80;99.90;;;7.97;100.00;97755.97;5003629;28;20046;-71
2022/12/25 01:38:20;;;;;;;15.80;3.47;;;8.80;99.90;;;8.04;100.00;97745.44;5000595;28;20054;-71
2022/12/25 01:40:47;;;;;;;16.15;3.60;;;8.80;99.90;;;8.07;100.00;97742.75;5001202;28;20618;-71
2022/12/25 01:43:28;;;;;;;17.35;2.85;;;8.80;99.90;;;8.05;100.00;97735.06;4998946;28;20046;-70
2022/12/25 01:45:56;;;;;;;14.05;2.97;;;8.80;99.90;;;8.08;100.00;97731.53;5003964;28;20052;-71
2022/12/25 01:48:36;;;;;;;12.98;3.30;;;8.80;99.90;;;8.05;100.00;97736.78;5001717;28;20480;-71
2022/12/25 01:51:25;;;;;;;14.95;2.95;;;8.80;99.90;;;8.02;100.00;97732.56;5012883;28;20061;-71
2022/12/25 01:53:53;;;;;;;13.48;3.00;;;8.80;99.90;;;8.03;100.00;97730.81;5001615;28;20065;-71
2022/12/25 01:56:20;;;;;;;14.52;3.10;;;8.80;99.90;;;8.07;100.00;97737.59;5002235;28;20053;-71
2022/12/25 01:58:48;;;;;;;10.73;3.03;;;8.80;99.90;;;8.15;100.00;97733.03;5004555;28;20589;-71
2022/12/25 02:01:15;;;;;;;15.25;3.75;;;8.80;99.90;;;8.18;100.00;97723.44;5001824;28;20602;-71
2022/12/25 02:03:42;;;;;;;18.00;4.07;;;8.90;99.90;;;8.05;100.00;97735.06;5001813;28;20174;-70
2022/12/25 02:06:09;;;;;;;11.98;3.05;;;8.90;99.90;;;8.22;100.00;97742.31;5001195;28;20423;-70
2022/12/25 02:08:36;;;;;;;10.32;3.92;;;8.90;99.90;;;8.10;100.00;97727.19;5005453;28;20046;-70
2022/12/25 02:11:03;;;;;;;16.17;4.22;;;9.00;99.90;;;8.06;100.00;97723.81;5002741;28;20049;-71
2022/12/25 02:13:30;;;;;;;18.58;4.35;;;9.00;99.90;;;7.99;100.00;97724.91;5001865;28;20042;-71
2022/12/25 02:16:15;;;;;;;16.83;4.95;;;9.00;99.90;;;7.87;100.00;97720.94;4998235;28;20050;-71
2022/12/25 02:18:48;;;;;;;19.08;5.10;;;9.00;99.90;;;7.78;100.00;97717.75;4998473;28;20061;-71
2022/12/25 02:22:02;;;;;;;19.13;6.13;;;8.90;99.90;;;7.79;100.00;97716.88;4996491;28;20084;-70
2022/12/25 02:24:41;;;;;;;17.70;5.35;;;8.80;99.90;;;7.87;100.00;97704.59;4996248;28;20088;-70
2022/12/25 02:27:26;;;;;;;23.98;6.45;;;8.70;99.90;;;7.68;100.00;97699.94;5011915;28;20038;-71
2022/12/25 02:30:07;;;;;;;21.33;5.32;;;8.70;99.90;;;7.77;100.00;97696.25;5001311;28;20123;-71
2022/12/25 02:35:50;;;;;;;12.27;3.90;;;8.50;99.90;;;7.69;100.00;97698.22;4996520;28;20038;-70
2022/12/25 02:38:38;;;;;;;13.23;3.60;;;8.40;99.90;;;7.56;100.00;97695.16;4997886;28;20046;-70
2022/12/25 02:41:13;;;;;;;19.05;4.38;;;8.40;99.90;;;7.47;100.00;97700.56;5001454;28;20057;-71
2022/12/25 03:06:43;;;;;;;12.40;4.03;;;7.70;99.90;;;6.91;100.00;97665.94;4995027;28;20045;-71
2022/12/25 03:12:27;;;;;;;15.57;4.10;;;7.70;99.90;;;6.91;100.00;97681.44;4998315;28;20050;-70
2022/12/25 03:17:39;;;;;;;18.63;5.22;;;7.80;99.90;;;7.12;100.00;97674.00;4998416;28;20070;-70
2022/12/25 03:28:25;;;;;;;26.98;4.80;;;8.00;99.90;;;7.37;100.00;97669.00;5001135;28;20045;-70
2022/12/25 03:31:20;;;;;;;18.33;5.03;;;8.10;99.90;;;7.43;100.00;97668.81;4999002;28;20053;-70
2022/12/25 04:37:46;;;;;;;9.85;3.35;;;9.00;99.90;;;8.36;100.00;97597.03;4997025;28;20057;-70
2022/12/25 04:40:13;;;;;;;5.43;2.65;;;9.10;99.90;;;8.33;100.00;97592.81;4997204;28;20060;-70
2022/12/25 04:42:40;;;;;;;7.75;2.50;;;9.20;99.90;;;8.30;100.00;97582.59;4998072;28;20050;-70
2022/12/25 04:45:08;;;;;;;9.48;3.53;;;9.10;99.90;;;8.31;100.00;97588.59;5000776;28;20057;-70
2022/12/25 04:47:34;;;;;;;7.15;2.33;;;9.10;99.90;;;8.26;100.00;97581.00;4994201;28;20496;-70
2022/12/25 04:50:02;;;;;;;8.75;2.75;;;;;;;8.12;100.00;97575.44;4996292;28;20563;-70
2022/12/25 04:52:35;;;;;;;8.82;3.08;;;;;;;8.04;100.00;97565.34;4999703;28;20610;-70
2022/12/25 04:55:03;;;;;;;9.30;2.30;;;8.80;99.90;;;8.11;100.00;97573.72;4994202;28;20050;-70
2022/12/25 04:57:31;;;;;;;6.55;2.60;;;8.70;99.90;;;8.12;100.00;97570.28;4994701;28;20520;-70
2022/12/25 04:59:57;;;;;;;6.05;2.30;;;8.70;99.90;;;7.93;100.00;97570.84;4993658;28;20046;-70
2022/12/25 05:02:24;;;;;;;6.03;2.10;;;8.60;99.90;;;7.93;100.00;97572.59;4992822;28;20052;-70
2022/12/25 05:04:52;;;;;;;5.72;2.75;;;8.50;99.90;;;7.67;100.00;97576.84;4982563;28;20514;-70
2022/12/25 05:07:19;;;;;;;10.45;3.40;;;8.50;99.90;;;7.67;100.00;97581.16;4992972;28;20049;-70
2022/12/25 05:09:46;;;;;;;11.25;5.03;;;8.40;99.90;;;7.61;100.00;97573.59;4997889;28;20475;-70
2022/12/25 05:12:13;;;;;;;14.80;6.38;;;8.40;99.90;;;7.48;100.00;97574.00;4999502;28;20050;-70
2022/12/25 05:14:40;;;;;;;12.95;6.18;;;8.30;99.90;;;7.45;100.00;97573.22;4994173;28;20420;-70
2022/12/25 05:17:07;;;;;;;15.82;5.45;;;8.30;99.90;;;7.42;100.00;97578.50;4999675;28;20068;-70
2022/12/25 05:19:34;;;;;;;13.10;5.72;;;8.30;99.90;;;7.44;100.00;97587.88;5001410;28;20046;-70
2022/12/25 05:22:01;;;;;;;19.17;8.98;;;8.40;99.90;;;7.33;100.00;97584.75;4999123;28;20053;-70
2022/12/25 05:24:28;;;;;;;12.80;5.10;;;8.30;99.90;;;7.38;100.00;97588.06;4998499;28;20056;-70
2022/12/25 05:26:55;;;;;;;11.25;4.35;;;8.30;99.90;;;7.57;100.00;97585.75;5001679;28;20488;-70
2022/12/25 05:29:22;;;;;;;10.95;4.07;;;8.40;99.90;;;7.57;100.00;97582.34;4996400;28;20069;-70
2022/12/25 05:31:49;;;;;;;13.02;5.28;;;8.40;99.90;;;7.56;100.00;97591.00;4997864;28;20070;-70
2022/12/25 05:34:16;;;;;;;14.70;4.57;;;8.40;99.90;;;7.67;100.00;97594.09;4996912;28;20077;-70
2022/12/25 05:36:42;;;;;;;6.22;3.45;;;8.50;99.90;;;7.78;100.00;97589.44;4998565;28;20057;-70
2022/12/25 05:39:09;;;;;;;8.57;3.42;;;8.50;99.90;;;7.82;100.00;97585.84;5001132;28;20522;-70
2022/12/25 05:41:36;;;;;;;7.10;3.05;;;8.60;99.90;;;7.96;100.00;97578.50;5000461;28;20527;-70
2022/12/25 05:44:03;;;;;;;7.88;2.90;;;8.60;99.90;;;7.94;100.00;97576.88;4998975;28;20519;-70
2022/12/25 05:46:30;;;;;;;6.10;3.15;;;8.60;99.90;;;7.91;100.00;97577.81;4996957;28;20507;-70
2022/12/25 05:48:57;;;;;;;5.70;2.90;;;8.70;99.90;;;7.95;100.00;97569.06;4999960;28;20042;-70
2022/12/25 05:51:25;;;;;;;5.53;3.53;;;8.70;99.90;;;7.97;100.00;97567.28;5000066;28;20046;-70
2022/12/25 05:53:51;;;;;;;9.95;4.25;;;8.70;99.90;;;7.92;100.00;97566.56;5000329;28;20138;-70
2022/12/25 05:56:18;;;;;;;10.68;5.22;;;8.70;99.90;;;7.93;100.00;97563.09;5002675;28;20046;-71
2022/12/25 05:58:45;;;;;;;11.40;4.65;;;8.80;99.90;;;7.81;100.00;97555.75;5000739;28;20895;-70
2022/12/25 06:01:17;;;;;;;8.40;4.10;;;8.80;99.90;;;7.78;100.00;97554.97;5000683;28;20056;-70
2022/12/25 06:03:44;;;;;;;10.45;5.25;;;8.80;99.90;;;7.82;100.00;97552.25;4988128;28;20520;-71
2022/12/25 06:06:12;;;;;;;11.98;5.55;;;8.80;99.90;;;7.82;100.00;97552.25;5001010;28;20085;-71
2022/12/25 06:08:39;;;;;;;10.75;4.93;;;8.80;99.90;;;7.67;100.00;97553.59;4999525;28;20041;-70
2022/12/25 06:11:08;;;;;;;12.23;5.88;;;8.80;99.90;;;7.80;100.00;97555.78;4997302;28;20049;-70
2022/12/25 06:13:36;;;;;;;8.90;5.13;;;8.80;99.90;;;7.82;100.00;97557.41;4997388;28;20053;-71
2022/12/25 06:16:09;;;;;;;11.25;4.82;;;8.80;99.90;;;7.86;100.00;97558.19;4997581;28;20064;-70
2022/12/25 06:18:44;;;;;;;11.38;5.35;;;8.80;99.90;;;7.81;100.00;97555.75;4999740;28;20057;-70
2022/12/25 06:21:13;;;;;;;12.73;7.15;;;8.80;99.90;;;7.75;100.00;97554.22;4993083;28;20529;-70
2022/12/25 06:23:40;;;;;;;12.25;6.07;;;8.80;99.90;;;7.80;100.00;97546.31;4997620;28;20065;-70
2022/12/25 06:26:11;;;;;;;14.07;6.93;;;8.70;99.90;;;7.72;100.00;97545.69;4999019;28;20056;-70
2022/12/25 06:28:39;;;;;;;14.38;6.78;;;8.80;99.90;;;7.75;100.00;97556.78;5011486;28;20527;-70
2022/12/25 06:31:15;;;;;;;16.27;8.02;;;8.80;99.90;;;7.72;100.00;97553.44;4997849;28;20124;-70
2022/12/25 06:33:43;;;;;;;14.93;6.68;;;8.80;99.90;;;7.72;100.00;97568.94;4997319;28;20060;-71
2022/12/25 06:36:15;;;;;;;12.27;6.63;;;8.80;99.90;;;7.70;100.00;97570.72;5003214;28;20101;-70
2022/12/25 06:38:43;;;;;;;16.13;7.38;;;8.80;99.90;;;7.67;100.00;97563.09;4998039;28;20064;-71
2022/12/25 06:41:16;;;;;;;13.40;8.48;;;8.80;99.90;;;7.60;100.00;97557.25;4994343;28;20049;-70
2022/12/25 06:43:48;;;;;;;17.50;8.20;;;8.70;99.90;;;7.60;100.00;97546.94;4996629;28;20085;-70
2022/12/25 06:46:17;;;;;;;18.17;9.40;;;8.70;99.90;;;7.62;100.00;97559.78;4997593;28;20054;-70
2022/12/25 06:48:48;;;;;;;13.57;8.52;;;8.70;99.90;;;7.54;100.00;97552.28;4997587;28;20050;-71
2022/12/25 06:51:17;;;;;;;13.98;7.35;;;8.70;99.90;;;7.58;100.00;97548.72;5001956;28;20065;-71
2022/12/25 06:53:48;;;;;;;17.05;7.93;;;8.70;99.90;;;7.58;100.00;97547.88;5000331;28;20539;-71
2022/12/25 06:56:19;;;;;;;13.95;8.35;;;8.70;99.90;;;7.57;100.00;97557.34;4999197;28;20046;-71
2022/12/25 06:58:59;;;;;;;14.63;8.38;;;8.70;99.90;;;7.59;100.00;97550.38;4997366;28;20133;-71
2022/12/25 07:01:42;;;;;;;17.23;10.45;;;8.70;99.90;;;7.61;100.00;97538.28;4999907;28;20449;-70
2022/12/25 07:04:34;;;;;;;14.98;8.82;;;8.70;99.90;;;7.70;100.00;97531.97;4998161;28;20191;-71
2022/12/25 07:07:01;;;;;;;19.05;10.02;;;8.70;99.90;;;7.66;100.00;97528.66;4996160;28;20758;-70
2022/12/25 07:09:35;;;;;;;14.93;7.47;;;8.70;99.90;;;7.71;100.00;97531.09;4997117;28;20058;-70
2022/12/25 07:12:20;;;;;;;12.35;6.63;;;8.70;99.90;;;7.86;100.00;97522.00;4994432;28;20053;-69
2022/12/25 07:14:48;;;;;;;9.45;5.03;;;8.70;99.90;;;7.96;100.00;97510.47;4998198;28;20132;-71
2022/12/25 07:17:17;;;;;;;11.65;5.07;;;8.70;99.90;;;7.96;100.00;97521.66;4998271;28;20054;-71
2022/12/25 07:19:45;;;;;;;9.10;5.65;;;8.70;99.90;;;7.93;100.00;97521.72;4995430;28;20099;-71
2022/12/25 07:22:13;;;;;;;10.68;5.25;;;8.70;99.90;;;7.89;100.00;97534.81;4999142;28;20081;-71
2022/12/25 07:24:41;;;;;;;12.23;7.80;;;8.70;99.90;;;7.96;100.00;97534.56;4997776;28;20061;-71
2022/12/25 07:27:08;;;;;;;15.15;8.38;;;8.70;99.90;;;7.93;100.00;97533.81;4995397;28;20599;-71
2022/12/25 07:29:35;;;;;;;25.65;14.77;;;8.70;99.90;;;7.69;100.00;97531.13;4994762;28;20050;-71
2022/12/25 07:32:02;;;;;;;16.23;11.38;;;8.70;99.90;;;7.76;100.00;97536.97;4997003;28;20575;-71
2022/12/25 07:34:29;;;;;;;15.25;10.45;;;8.70;99.90;;;7.72;100.00;97543.94;4998939;28;20045;-69
2022/12/25 07:36:56;;;;;;;15.57;10.85;;;8.70;99.90;;;7.74;100.00;97549.91;4997854;28;20053;-70
2022/12/25 07:39:23;;;;;;;20.20;13.05;;;8.70;99.90;;;7.73;100.00;97548.25;4995822;28;20356;-69
2022/12/25 07:41:50;;;;;;;17.33;9.98;;;8.70;99.90;;;7.88;100.00;97526.22;4998996;28;20069;-69
2022/12/25 07:44:17;;;;;;;16.77;11.35;;;8.80;99.90;;;8.01;100.00;97529.25;4997680;28;20046;-69
2022/12/25 07:46:44;;;;;;;16.90;10.43;;;8.80;99.90;;;8.00;100.00;97526.72;4996634;28;20117;-69
2022/12/25 07:49:11;;;;;;;15.13;10.68;;;8.90;99.90;;;8.00;100.00;97532.72;4995377;28;20507;-70
2022/12/25 07:51:38;;;;;;;21.85;14.73;;;8.90;99.90;;;7.95;100.00;97532.88;4995424;28;20045;-70
2022/12/25 07:54:05;;;;;;;15.38;10.93;;;8.90;99.90;;;8.06;100.00;97536.84;5002413;28;20145;-70
2022/12/25 07:56:32;;;;;;;25.92;16.98;;;8.90;99.90;;;7.97;100.00;97535.41;4981170;28;20492;-70
2022/12/25 07:59:00;;;;;;;24.90;18.65;;;9.00;99.90;;;7.82;100.00;97538.50;4996534;28;20046;-69
2022/12/25 08:01:28;;;;;;;28.20;17.75;;;8.90;99.90;;;7.76;100.00;97526.63;4997022;28;20084;-69
2022/12/25 08:04:00;;;;;;;27.00;17.92;;;9.00;99.90;;;7.75;100.00;97515.44;4993600;28;20050;-71
2022/12/25 08:06:33;;;;;;;22.73;14.90;;;9.00;99.90;;;7.86;100.00;97520.25;4997063;28;20140;-71
2022/12/25 08:09:10;;;;;;;15.85;10.95;;;8.90;99.90;;;8.07;100.00;97513.53;5011861;28;20312;-70
2022/12/25 08:11:37;;;;;;;13.68;8.45;;;9.00;99.90;;;8.06;100.00;97511.00;5013245;28;20042;-71
2022/12/25 08:14:08;;;;;;;17.35;10.05;;;9.00;99.90;;;8.12;100.00;97500.47;5010444;28;20523;-71
2022/12/25 08:16:38;;;;;;;11.48;6.45;;;9.10;99.90;;;8.25;100.00;97504.28;4992695;28;20049;-71
2022/12/25 08:19:06;;;;;;;9.13;4.93;;;9.10;99.90;;;8.29;100.00;97512.81;4996664;28;20068;-71
2022/12/25 08:21:33;;;;;;;12.60;7.40;;;9.20;99.90;;;8.19;100.00;97496.78;4996576;28;20542;-71
2022/12/25 08:24:01;;;;;;;12.10;8.00;;;9.20;99.90;;;8.14;100.00;97502.09;4998021;28;20046;-71
2022/12/25 08:26:28;;;;;;;8.70;5.53;;;9.30;99.90;;;8.20;100.00;97507.94;4996530;28;20132;-71
2022/12/25 08:28:55;;;;;;;8.38;5.43;;;9.40;99.90;;;8.22;100.00;97508.75;4995714;28;20054;-71
2022/12/25 08:31:27;;;;;;;9.65;6.22;;;9.40;99.90;;;8.32;100.00;97510.09;4995980;28;20046;-71
2022/12/25 08:33:57;;;;;;;15.82;9.07;;;9.40;99.90;;;8.27;100.00;97504.25;5010120;28;20047;-71
2022/12/25 08:36:24;;;;;;;19.23;13.25;;;9.40;99.90;;;8.31;100.00;97504.09;4999488;28;20420;-71
2022/12/25 08:38:52;;;;;;;13.65;7.60;;;9.60;99.90;;;8.40;100.00;97508.13;5000152;28;20105;-68
2022/12/25 08:41:29;;;;;;;9.23;4.80;;;;;;;8.52;100.00;97512.03;4999885;28;20042;-69
2022/12/25 08:43:56;;;;;;;6.88;3.83;;;9.80;99.90;;;8.60;100.00;97510.03;5000528;28;20072;-69
2022/12/25 08:46:23;;;;;;;6.22;2.72;;;9.60;99.90;;;8.84;100.00;97507.44;4997704;28;20042;-69
2022/12/25 08:48:50;;;;;;;5.90;3.92;;;9.60;99.90;;;8.88;100.00;97509.03;4997711;28;20463;-70
2022/12/25 08:51:20;;;;;;;10.98;5.43;;;9.60;99.90;;;8.82;100.00;97520.44;4997180;28;20453;-70
2022/12/25 08:53:49;;;;;;;6.10;3.47;;;9.50;99.90;;;8.90;100.00;97509.81;4998162;28;20408;-69
2022/12/25 08:56:19;;;;;;;9.63;2.90;;;9.60;99.90;;;8.92;100.00;97505.44;5007428;28;20089;-69
2022/12/25 08:58:46;;;;;;;7.45;3.65;;;9.70;99.90;;;8.98;100.00;97493.06;4987417;28;20140;-69
2022/12/25 09:01:14;;;;;;;5.32;2.13;;;;;;;9.21;100.00;97489.63;4998873;28;20232;-69
2022/12/25 09:03:42;;;;;;;5.85;2.63;;;10.00;99.90;;;9.31;100.00;97497.88;4998069;28;20065;-69
2022/12/25 09:06:15;;;;;;;5.18;2.38;;;10.10;99.90;;;9.48;100.00;97488.59;4997644;28;20082;-69
2022/12/25 09:08:43;;;;;;;7.60;2.88;;;10.20;99.90;;;9.49;100.00;97498.91;5000569;28;20054;-69
2022/12/25 09:11:16;;;;;;;5.50;3.22;;;;;;;9.52;100.00;97487.59;5005099;28;20053;-69
2022/12/25 09:13:43;;;;;;;6.90;2.90;;;10.40;99.90;;;9.57;100.00;97496.00;5001751;28;20050;-69
2022/12/25 09:16:15;;;;;;;5.68;3.42;;;10.50;99.90;;;9.68;100.00;97482.63;5004389;28;20353;-70
2022/12/25 09:18:42;;;;;;;4.77;2.33;;;10.50;99.90;;;9.74;100.00;97478.03;5007503;28;20042;-69
2022/12/25 09:21:12;;;;;;;5.18;2.35;;;10.60;99.90;;;9.84;100.00;97471.56;4999790;28;20614;-69
2022/12/25 09:23:41;;;;;;;8.38;4.25;;;10.60;99.90;;;9.93;100.00;97465.16;5001382;28;20054;-70
2022/12/25 09:26:14;;;;;;;4.10;1.90;;;10.70;99.90;;;9.87;100.00;97469.75;5007336;28;20049;-70
2022/12/25 09:28:42;;;;;;;6.78;3.40;;;10.70;99.90;;;9.81;100.00;97465.69;5001174;28;20069;-69
2022/12/25 09:31:17;;;;;;;7.07;3.75;;;10.80;99.90;;;9.94;100.00;97461.66;4999089;28;20050;-70
2022/12/25 09:33:44;;;;;;;7.25;4.47;;;10.80;99.90;;;10.00;100.00;97450.19;4996718;28;20468;-70
2022/12/25 09:36:11;;;;;;;5.25;2.40;;;10.80;99.90;;;9.90;100.00;97448.88;4997370;28;20047;-70
2022/12/25 09:38:38;;;;;;;3.72;1.95;;;10.90;99.90;;;10.07;100.00;97454.22;5009244;28;20054;-69
2022/12/25 09:41:20;;;;;;;10.63;6.68;;;;;;;10.15;100.00;97459.06;5001108;28;20136;-69
2022/12/25 09:44:01;;;;;;;6.03;2.95;;;11.10;99.90;;;10.18;100.00;97453.75;4994811;28;20049;-69
2022/12/25 09:46:39;;;;;;;5.90;3.25;;;11.10;99.90;;;10.03;100.00;97458.69;5002440;28;20046;-69
2022/12/25 09:49:34;;;;;;;5.13;2.70;;;11.20;99.90;;;10.07;100.00;97458.56;4985801;28;20126;-70
2022/12/25 09:52:10;;;;;;;6.10;2.38;;;11.20;99.90;;;10.07;100.00;97463.75;4996549;28;20054;-69
2022/12/25 09:55:23;;;;;;;5.85;2.53;;;11.10;99.90;;;10.21;100.00;97454.44;4988194;28;20332;-69
2022/12/25 09:57:56;;;;;;;6.95;2.67;;;11.10;99.90;;;10.18;100.00;97462.38;5005333;28;20046;-69
2022/12/25 10:00:31;;;;;;;28.35;17.30;;;11.20;99.90;;;10.22;100.00;97470.88;5004011;28;20073;-69
2022/12/25 10:03:41;;;;;;;29.80;17.83;;;11.20;99.90;;;10.38;100.00;97471.94;4985532;28;20213;-69
2022/12/25 10:06:18;;;;;;;9.48;6.00;;;11.30;99.90;;;10.47;100.00;97473.28;5002698;28;21969;-70
2022/12/25 10:09:09;;;;;;;9.10;4.93;;;11.20;99.90;;;10.43;100.00;97466.53;4994451;28;20042;-69
2022/12/25 10:12:17;;;;;;;5.40;2.75;;;11.30;99.90;;;10.33;100.00;97465.22;4997460;28;20473;-69
2022/12/25 10:15:17;;;;;;;5.57;3.13;;;11.20;99.90;;;10.28;100.00;97468.00;4997004;28;20050;-69
2022/12/25 10:18:02;;;;;;;4.13;1.90;;;11.00;99.90;;;10.11;100.00;97473.91;4995761;28;20046;-69
2022/12/25 10:20:52;;;;;;;3.50;1.85;;;10.90;99.90;;;10.07;100.00;97461.97;4995936;28;20487;-69
2022/12/25 10:23:36;;;;;;;4.82;2.05;;;10.90;99.90;;;10.09;100.00;97462.75;4994519;28;20141;-69
2022/12/25 10:26:18;;;;;;;3.65;1.77;;;10.90;99.90;;;10.13;100.00;97463.50;5011804;28;20050;-69
2022/12/25 10:28:56;;;;;;;5.50;2.40;;;11.00;99.90;;;10.11;100.00;97466.13;4995698;28;20052;-68
2022/12/25 10:31:26;;;;;;;4.68;2.08;;;11.00;99.90;;;10.13;100.00;97466.09;4995158;28;20050;-69
2022/12/25 10:33:54;;;;;;;3.85;1.92;;;11.20;99.90;;;10.25;100.00;97462.94;4994789;28;21290;-69
2022/12/25 10:36:24;;;;;;;5.03;2.03;;;11.30;99.90;;;10.39;100.00;97468.41;4997809;28;20473;-69
2022/12/25 10:38:54;;;;;;;4.47;1.98;;;11.30;99.90;;;10.45;100.00;97464.72;4995701;28;20710;-69
2022/12/25 10:41:56;;;;;;;6.35;2.15;;;11.40;99.90;;;10.43;100.00;97461.34;5000701;28;20054;-69
2022/12/25 10:44:23;;;;;;;4.47;2.03;;;11.50;99.90;;;10.52;100.00;97465.28;4998063;28;20100;-69
2022/12/25 10:46:54;;;;;;;4.70;2.28;;;11.60;99.90;;;10.63;100.00;97457.88;4995279;28;20060;-69
2022/12/25 10:49:27;;;;;;;4.82;1.65;;;11.60;99.90;;;10.71;100.00;97452.34;4993305;28;20105;-69
2022/12/25 10:51:57;;;;;;;3.47;1.80;;;11.70;99.90;;;10.78;100.00;97446.78;4997725;28;20042;-68
2022/12/25 10:54:36;;;;;;;4.53;1.65;;;11.70;99.90;;;10.83;100.00;97441.38;5000819;28;20602;-69
2022/12/25 10:57:15;;;;;;;4.78;1.83;;;11.80;99.90;;;10.87;100.00;97432.53;5002335;28;20049;-69
2022/12/25 11:00:04;;;;;;;3.88;1.67;;;11.80;99.90;;;10.87;100.00;97429.94;4998290;28;20522;-68
2022/12/25 11:02:39;;;;;;;5.47;1.95;;;11.90;99.90;;;10.94;100.00;97431.34;4998575;28;20060;-69
2022/12/25 11:05:13;;;;;;;5.80;2.08;;;11.90;99.90;;;10.93;100.00;97431.44;4998626;28;20065;-69
2022/12/25 11:07:49;;;;;;;3.25;1.50;;;12.00;99.90;;;11.18;100.00;97418.97;4995941;28;20046;-69
2022/12/25 11:10:51;;;;;;;5.70;1.70;;;12.10;99.90;;;11.26;100.00;97409.03;4997504;28;20054;-69
2022/12/25 11:13:28;;;;;;;6.13;1.60;;;12.10;99.90;;;11.19;100.00;97393.81;4990200;28;20554;-69
2022/12/25 11:16:14;;;;;;;3.15;1.75;;;12.20;99.90;;;11.15;100.00;97400.91;4993552;28;20053;-69
2022/12/25 11:18:50;;;;;;;4.85;1.90;;;12.20;99.90;;;11.26;100.00;97388.25;4992333;28;20157;-69
2022/12/25 11:21:22;;;;;;;5.20;1.77;;;12.20;99.90;;;11.34;100.00;97395.69;4994839;28;20053;-69
2022/12/25 11:24:04;;;;;;;3.63;1.60;;;12.30;99.90;;;11.55;100.00;97392.97;4994541;28;20054;-69
2022/12/25 11:26:45;;;;;;;3.95;2.00;;;12.30;99.90;;;11.56;100.00;97382.47;4995537;28;20316;-69
2022/12/25 11:29:44;;;;;;;6.13;2.13;;;12.40;99.90;;;11.54;100.00;97386.06;4993305;28;20050;-69
2022/12/25 11:32:36;;;;;;;6.13;1.90;;;12.50;99.90;;;11.25;100.00;97380.56;4996102;28;20057;-69
2022/12/25 11:35:17;;;;;;;3.45;2.10;;;12.50;99.90;;;11.34;100.00;97381.88;4993949;28;20057;-69
2022/12/25 11:37:48;;;;;;;3.38;1.77;;;12.50;99.90;;;11.46;100.00;97386.44;5003596;28;20060;-69
2022/12/25 11:40:24;;;;;;;4.38;2.00;;;12.50;99.90;;;11.40;100.00;97373.75;4997594;28;20060;-69
2022/12/25 11:43:08;;;;;;;5.93;2.53;;;12.50;99.90;;;11.52;100.00;97379.19;4997788;28;20137;-69
2022/12/25 11:45:41;;;;;;;4.43;2.30;;;12.70;99.90;;;11.72;100.00;97364.34;4996053;28;20134;-69
2022/12/25 11:48:29;;;;;;;4.85;2.20;;;12.70;99.90;;;11.90;100.00;97360.00;4995616;28;20058;-69
2022/12/25 11:51:02;;;;;;;3.47;1.55;;;12.80;99.90;;;11.99;100.00;97351.72;4998891;28;20050;-69
2022/12/25 11:53:40;;;;;;;;;;;12.90;99.90;;;12.06;100.00;97342.66;4992826;28;20061;-69
2022/12/25 11:56:10;;;;;;;3.95;2.00;;;12.90;99.90;;;12.02;100.00;97337.72;4993673;28;19921;-69
2022/12/25 11:58:45;;;;;;;3.92;1.92;;;12.90;99.90;;;12.09;100.00;97339.94;5002357;28;20510;-69
2022/12/25 12:01:40;;;;;;;4.97;1.92;;;13.00;99.90;;;12.25;100.00;97344.34;4993845;28;20784;-69
2022/12/25 12:04:25;;;;;;;4.75;1.92;;;13.10;99.90;;;12.09;100.00;97347.72;4990654;28;20463;-69
2022/12/25 12:07:29;;;;;;;5.07;1.85;;;13.10;99.90;;;12.27;100.00;97351.13;4997241;28;20129;-69
2022/12/25 12:10:20;;;;;;;3.80;1.73;;;13.10;99.90;;;12.27;100.00;97350.28;4995555;28;20072;-69
2022/12/25 12:12:57;;;;;;;6.05;2.00;;;13.10;99.90;;;12.23;100.00;97338.38;4990152;28;20136;-70
2022/12/25 12:15:44;;;;;;;7.15;2.35;;;13.10;99.90;;;12.25;100.00;97342.56;4994274;28;20145;-68
2022/12/25 12:18:26;;;;;;;5.45;1.95;;;13.10;99.90;;;12.20;100.00;97347.19;4998731;28;20518;-69
2022/12/25 12:21:29;;;;;;;3.53;1.80;;;13.10;99.90;;;12.29;100.00;97345.81;4997341;28;20136;-69
2022/12/25 12:24:11;;;;;;;6.32;2.10;;;13.10;99.90;;;12.29;100.00;97346.69;4998948;28;20057;-70
2022/12/25 12:26:41;;;;;;;6.55;2.47;;;13.20;99.90;;;12.38;100.00;97347.94;5000973;28;20133;-69
2022/12/25 12:29:26;;;;;;;4.43;2.38;;;13.20;99.90;;;12.50;100.00;97342.09;5000269;28;20078;-70